Dades meteomassalio
Diari Summary for Abril 6, 2017 Units:  Metric    English   Both
« Previous Day
Next Day »
Diari Semanal Mensual Anual Personalitzat
  Maxima: Minima: Mijana:
Temperatura: 20.7 °C 8.1 °C 14.1 °C
Rosada: 6.6 °C 2.8 °C 5.4 °C
Humitat: 82 % 31 % 58 %
Velocitat del vent: 37.0 km/h 0.0 km/h 18.4 km/h
Racha vent: 37.0 km/h - -
Vent:- - West
Pressio: 1022.2 hPa 1015.8 hPa -
Pluja: 0.0 mm    
Historical Graphs
 
 
Tabular Data for Abril 6, 2017
Time Temperature Dew Point Pressure Wind Wind Speed Wind Gust Humidity Rainfall Rate (Hourly) solar Conditions
00:04 11.6 °C 6.3 °C 1021.6 hPa West 18.5 km/h 18.5 km/h 70 % 0.0 mm 0.0 W/m2 CLR
00:09 11.6 °C 6.3 °C 1021.6 hPa WNW 22.2 km/h 22.2 km/h 70 % 0.0 mm 0.0 W/m2 CLR
00:14 11.5 °C 6.2 °C 1021.2 hPa West 29.6 km/h 29.6 km/h 70 % 0.0 mm 0.0 W/m2 CLR
00:19 11.4 °C 6.2 °C 1021.2 hPa West 24.1 km/h 24.1 km/h 70 % 0.0 mm 0.0 W/m2 CLR
00:24 11.3 °C 6.3 °C 1021.2 hPa West 33.3 km/h 33.3 km/h 71 % 0.0 mm 0.0 W/m2 CLR
00:29 11.3 °C 6.3 °C 1021.2 hPa West 31.5 km/h 31.5 km/h 71 % 0.0 mm 0.0 W/m2 CLR
00:34 11.3 °C 6.4 °C 1021.2 hPa WSW 27.4 km/h 27.4 km/h 72 % 0.0 mm 0.0 W/m2 CLR
00:39 11.2 °C 6.3 °C 1021.2 hPa West 27.8 km/h 27.8 km/h 72 % 0.0 mm 0.0 W/m2 CLR
00:44 11.2 °C 6.3 °C 1021.2 hPa West 35.4 km/h 35.4 km/h 72 % 0.0 mm 0.0 W/m2 CLR
00:49 11.2 °C 6.3 °C 1021.2 hPa West 25.9 km/h 25.9 km/h 72 % 0.0 mm 0.0 W/m2 CLR
00:54 11.1 °C 6.3 °C 1021.6 hPa West 20.4 km/h 20.4 km/h 72 % 0.0 mm 0.0 W/m2 CLR
00:59 11.1 °C 6.4 °C 1021.6 hPa West 20.9 km/h 20.9 km/h 73 % 0.0 mm 0.0 W/m2 CLR
01:04 11.0 °C 6.3 °C 1021.6 hPa West 27.8 km/h 27.8 km/h 73 % 0.0 mm 0.0 W/m2 CLR
01:09 11.0 °C 6.3 °C 1021.6 hPa West 22.2 km/h 22.2 km/h 73 % 0.0 mm 0.0 W/m2 CLR
01:14 10.9 °C 6.3 °C 1021.6 hPa West 20.4 km/h 20.4 km/h 73 % 0.0 mm 0.0 W/m2 CLR
01:19 10.8 °C 6.2 °C 1021.6 hPa West 22.2 km/h 22.2 km/h 73 % 0.0 mm 0.0 W/m2 CLR
01:24 10.8 °C 6.1 °C 1021.6 hPa West 24.1 km/h 24.1 km/h 73 % 0.0 mm 0.0 W/m2 CLR
01:29 10.8 °C 6.3 °C 1021.6 hPa West 20.9 km/h 21.7 km/h 74 % 0.0 mm 0.0 W/m2 CLR
01:35 10.7 °C 6.3 °C 1021.6 hPa WSW 20.9 km/h 20.9 km/h 74 % 0.0 mm 0.0 W/m2 CLR
01:40 10.7 °C 6.2 °C 1021.6 hPa WSW 25.9 km/h 25.9 km/h 74 % 0.0 mm 0.0 W/m2 CLR
01:45 10.7 °C 6.2 °C 1021.6 hPa WSW 24.1 km/h 24.1 km/h 74 % 0.0 mm 0.0 W/m2 CLR
01:50 10.6 °C 6.2 °C 1021.6 hPa West 20.9 km/h 21.1 km/h 74 % 0.0 mm 0.0 W/m2 CLR
01:55 10.5 °C 6.1 °C 1021.6 hPa WSW 22.2 km/h 22.2 km/h 74 % 0.0 mm 0.0 W/m2 CLR
02:00 10.4 °C 6.2 °C 1021.6 hPa WSW 22.2 km/h 22.2 km/h 75 % 0.0 mm 0.0 W/m2 CLR
02:05 10.3 °C 6.1 °C 1021.6 hPa West 18.5 km/h 18.5 km/h 75 % 0.0 mm 0.0 W/m2 CLR
02:10 10.2 °C 6.0 °C 1021.2 hPa West 16.7 km/h 16.7 km/h 75 % 0.0 mm 0.0 W/m2 CLR
02:15 10.3 °C 6.1 °C 1021.6 hPa West 24.1 km/h 24.1 km/h 75 % 0.0 mm 0.0 W/m2 CLR
02:20 10.3 °C 6.1 °C 1021.6 hPa West 22.2 km/h 22.2 km/h 75 % 0.0 mm 0.0 W/m2 CLR
02:25 10.3 °C 6.1 °C 1021.9 hPa WNW 16.7 km/h 16.7 km/h 75 % 0.0 mm 0.0 W/m2 CLR
02:30 10.2 °C 5.9 °C 1021.6 hPa West 18.5 km/h 18.5 km/h 75 % 0.0 mm 0.0 W/m2 CLR
02:35 10.0 °C 5.9 °C 1021.6 hPa West 18.5 km/h 18.5 km/h 76 % 0.0 mm 0.0 W/m2 CLR
02:40 10.1 °C 6.0 °C 1021.6 hPa WNW 18.5 km/h 18.5 km/h 76 % 0.0 mm 0.0 W/m2 CLR
02:45 10.1 °C 6.0 °C 1021.6 hPa West 18.5 km/h 18.5 km/h 76 % 0.0 mm 0.0 W/m2 CLR
02:50 10.0 °C 5.9 °C 1021.6 hPa WSW 22.2 km/h 22.2 km/h 76 % 0.0 mm 0.0 W/m2 CLR
02:55 10.0 °C 5.9 °C 1021.6 hPa West 13.0 km/h 13.0 km/h 76 % 0.0 mm 0.0 W/m2 CLR
03:00 9.9 °C 5.9 °C 1021.6 hPa West 13.0 km/h 13.0 km/h 76 % 0.0 mm 0.0 W/m2 CLR
03:05 9.9 °C 5.8 °C 1021.6 hPa West 22.2 km/h 22.2 km/h 76 % 0.0 mm 0.0 W/m2 CLR
03:10 9.9 °C 5.8 °C 1021.6 hPa WSW 16.7 km/h 16.7 km/h 76 % 0.0 mm 0.0 W/m2 CLR
03:15 9.8 °C 5.7 °C 1021.6 hPa SW 9.3 km/h 9.3 km/h 76 % 0.0 mm 0.0 W/m2 CLR
03:20 9.8 °C 5.7 °C 1021.6 hPa West 13.0 km/h 13.0 km/h 76 % 0.0 mm 0.0 W/m2 CLR
03:25 9.8 °C 5.7 °C 1021.6 hPa WSW 18.5 km/h 18.5 km/h 76 % 0.0 mm 0.0 W/m2 CLR
03:30 9.8 °C 5.7 °C 1021.6 hPa WSW 16.7 km/h 16.7 km/h 76 % 0.0 mm 0.0 W/m2 CLR
03:35 9.8 °C 5.7 °C 1021.9 hPa WSW 11.1 km/h 11.1 km/h 76 % 0.0 mm 0.0 W/m2 CLR
03:40 9.7 °C 5.6 °C 1021.6 hPa WSW 14.8 km/h 14.8 km/h 76 % 0.0 mm 0.0 W/m2 CLR
03:45 9.6 °C 5.6 °C 1021.6 hPa WSW 11.1 km/h 11.1 km/h 76 % 0.0 mm 0.0 W/m2 CLR
03:50 9.6 °C 5.7 °C 1021.6 hPa West 18.5 km/h 18.5 km/h 77 % 0.0 mm 0.0 W/m2 CLR
03:55 9.6 °C 5.8 °C 1021.6 hPa West 18.5 km/h 18.5 km/h 77 % 0.0 mm 0.0 W/m2 CLR
04:00 9.6 °C 5.7 °C 1021.6 hPa West 18.5 km/h 18.5 km/h 77 % 0.0 mm 0.0 W/m2 CLR
04:05 9.6 °C 5.7 °C 1021.6 hPa West 18.5 km/h 18.5 km/h 77 % 0.0 mm 0.0 W/m2 CLR
04:10 9.6 °C 5.7 °C 1021.6 hPa West 18.5 km/h 18.5 km/h 77 % 0.0 mm 0.0 W/m2 CLR
04:15 9.5 °C 5.7 °C 1021.6 hPa WSW 16.7 km/h 16.7 km/h 77 % 0.0 mm 0.0 W/m2 CLR
04:20 9.4 °C 5.6 °C 1021.6 hPa WSW 9.3 km/h 9.3 km/h 77 % 0.0 mm 0.0 W/m2 CLR
04:25 9.3 °C 5.5 °C 1021.6 hPa WSW 11.1 km/h 11.1 km/h 77 % 0.0 mm 0.0 W/m2 CLR
04:30 9.2 °C 5.6 °C 1021.6 hPa West 12.9 km/h 12.9 km/h 78 % 0.0 mm 0.0 W/m2 CLR
04:35 9.2 °C 5.6 °C 1021.6 hPa West 16.1 km/h 16.1 km/h 78 % 0.0 mm 0.0 W/m2 CLR
04:40 9.3 °C 5.6 °C 1021.6 hPa WSW 20.9 km/h 20.9 km/h 78 % 0.0 mm 0.0 W/m2 CLR
04:45 9.4 °C 5.7 °C 1021.6 hPa WSW 18.5 km/h 18.5 km/h 78 % 0.0 mm 0.0 W/m2 CLR
04:50 9.4 °C 5.6 °C 1021.6 hPa SSW 20.4 km/h 20.4 km/h 77 % 0.0 mm 0.0 W/m2 CLR
04:55 9.5 °C 5.7 °C 1021.6 hPa West 22.2 km/h 22.2 km/h 77 % 0.0 mm 0.0 W/m2 CLR
05:00 9.5 °C 5.7 °C 1021.6 hPa West 16.7 km/h 16.7 km/h 77 % 0.0 mm 0.0 W/m2 CLR
05:05 9.5 °C 5.7 °C 1021.6 hPa West 18.5 km/h 18.5 km/h 77 % 0.0 mm 0.0 W/m2 CLR
05:10 9.5 °C 5.7 °C 1021.6 hPa West 22.2 km/h 22.2 km/h 77 % 0.0 mm 0.0 W/m2 CLR
05:15 9.6 °C 5.8 °C 1021.6 hPa WNW 18.5 km/h 18.5 km/h 77 % 0.0 mm 0.0 W/m2 CLR
05:20 9.6 °C 5.8 °C 1021.6 hPa West 18.5 km/h 18.5 km/h 77 % 0.0 mm 0.0 W/m2 CLR
05:25 9.6 °C 5.7 °C 1021.6 hPa WSW 20.9 km/h 20.9 km/h 77 % 0.0 mm 0.0 W/m2 CLR
05:30 9.6 °C 5.7 °C 1021.2 hPa WSW 22.2 km/h 22.2 km/h 77 % 0.0 mm 0.0 W/m2 CLR
05:35 9.6 °C 5.8 °C 1021.2 hPa WNW 24.1 km/h 24.1 km/h 77 % 0.0 mm 0.0 W/m2 CLR
05:40 9.5 °C 5.8 °C 1021.2 hPa West 22.5 km/h 22.5 km/h 78 % 0.0 mm 0.0 W/m2 CLR
05:45 9.6 °C 5.7 °C 1021.2 hPa West 25.9 km/h 25.9 km/h 77 % 0.0 mm 0.0 W/m2 CLR
05:50 9.5 °C 5.7 °C 1021.2 hPa West 18.5 km/h 18.5 km/h 77 % 0.0 mm 0.0 W/m2 CLR
05:55 9.4 °C 5.7 °C 1021.2 hPa WNW 18.5 km/h 18.5 km/h 78 % 0.0 mm 0.0 W/m2 CLR
06:00 9.3 °C 5.7 °C 1021.2 hPa West 18.5 km/h 18.5 km/h 78 % 0.0 mm 0.0 W/m2 CLR
06:05 9.3 °C 5.7 °C 1021.6 hPa West 16.7 km/h 16.7 km/h 78 % 0.0 mm 0.0 W/m2 CLR
06:10 9.3 °C 5.6 °C 1021.2 hPa West 18.5 km/h 18.5 km/h 78 % 0.0 mm 0.0 W/m2 CLR
06:15 9.3 °C 5.6 °C 1021.2 hPa West 13.0 km/h 13.0 km/h 78 % 0.0 mm 0.0 W/m2 CLR
06:20 9.2 °C 5.7 °C 1021.6 hPa West 16.7 km/h 16.7 km/h 79 % 0.0 mm 0.0 W/m2 CLR
06:25 9.2 °C 5.7 °C 1021.6 hPa WSW 13.0 km/h 13.0 km/h 79 % 0.0 mm 0.0 W/m2 CLR
06:30 9.0 °C 5.6 °C 1021.6 hPa WSW 5.6 km/h 5.6 km/h 79 % 0.0 mm 0.0 W/m2 CLR
06:35 8.8 °C 5.4 °C 1021.6 hPa SW 13.0 km/h 13.0 km/h 79 % 0.0 mm 0.0 W/m2 CLR
06:40 8.7 °C 5.4 °C 1021.6 hPa WSW 7.4 km/h 7.4 km/h 80 % 0.0 mm 0.0 W/m2 CLR
06:45 8.5 °C 5.2 °C 1021.6 hPa WSW 13.0 km/h 13.0 km/h 80 % 0.0 mm 0.0 W/m2 CLR
06:51 8.4 °C 5.3 °C 1021.6 hPa WSW 11.1 km/h 11.1 km/h 81 % 0.0 mm 0.0 W/m2 CLR
06:56 8.3 °C 5.3 °C 1021.6 hPa WSW 5.6 km/h 5.6 km/h 81 % 0.0 mm 0.0 W/m2 CLR
07:01 8.3 °C 5.3 °C 1021.6 hPa SW 5.6 km/h 5.6 km/h 81 % 0.0 mm 0.0 W/m2 CLR
07:06 8.3 °C 5.3 °C 1021.6 hPa SW 13.0 km/h 13.0 km/h 81 % 0.0 mm 0.0 W/m2 CLR
07:11 8.3 °C 5.3 °C 1021.9 hPa SW 5.6 km/h 6.6 km/h 81 % 0.0 mm 0.0 W/m2 CLR
07:16 8.3 °C 5.2 °C 1021.9 hPa SW 7.4 km/h 7.4 km/h 81 % 0.0 mm 0.0 W/m2 CLR
07:21 8.2 °C 5.2 °C 1021.9 hPa SW 7.4 km/h 7.4 km/h 81 % 0.0 mm 0.0 W/m2 CLR
07:26 8.2 °C 5.1 °C 1021.9 hPa SW 5.6 km/h 5.6 km/h 81 % 0.0 mm 0.0 W/m2 OVC
07:31 8.1 °C 5.2 °C 1021.9 hPa SW 9.3 km/h 9.3 km/h 82 % 0.0 mm 0.0 W/m2 OVC
07:36 8.2 °C 5.1 °C 1021.9 hPa SW 5.6 km/h 5.6 km/h 81 % 0.0 mm 5.0 W/m2 OVC
07:41 8.1 °C 5.2 °C 1021.9 hPa SW 9.3 km/h 9.3 km/h 82 % 0.0 mm 7.0 W/m2 BKN
07:46 8.2 °C 5.3 °C 1021.9 hPa SW 7.4 km/h 7.4 km/h 82 % 0.0 mm 11.0 W/m2 BKN
07:51 8.2 °C 5.1 °C 1021.9 hPa SW 9.3 km/h 9.3 km/h 81 % 0.0 mm 14.0 W/m2 BKN
07:56 8.3 °C 5.2 °C 1022.2 hPa SW 8.0 km/h 8.0 km/h 81 % 0.0 mm 18.0 W/m2 BKN
08:01 8.4 °C 5.4 °C 1022.2 hPa SW 9.3 km/h 9.3 km/h 81 % 0.0 mm 21.0 W/m2 BKN
08:06 8.6 °C 5.3 °C 1022.2 hPa SSW 8.0 km/h 8.0 km/h 80 % 0.0 mm 26.0 W/m2 BKN
08:11 8.6 °C 5.3 °C 1022.2 hPa SW 7.4 km/h 7.4 km/h 80 % 0.0 mm 33.0 W/m2 BKN
08:16 8.6 °C 5.3 °C 1022.2 hPa SW 9.3 km/h 9.3 km/h 80 % 0.0 mm 42.0 W/m2 BKN
08:21 8.8 °C 5.5 °C 1022.2 hPa SW 7.4 km/h 7.4 km/h 80 % 0.0 mm 58.0 W/m2 SCT
08:26 8.9 °C 5.4 °C 1022.2 hPa SW 9.3 km/h 9.3 km/h 79 % 0.0 mm 70.0 W/m2 FEW
08:31 9.1 °C 5.6 °C 1022.2 hPa SW 13.0 km/h 13.0 km/h 79 % 0.0 mm 76.0 W/m2 FEW
08:36 9.3 °C 5.6 °C 1022.2 hPa WSW 6.4 km/h 6.4 km/h 78 % 0.0 mm 98.0 W/m2 FEW
08:41 9.6 °C 5.7 °C 1022.2 hPa WSW 11.1 km/h 11.1 km/h 77 % 0.0 mm 116.0 W/m2 CLR
08:46 9.8 °C 5.8 °C 1022.2 hPa West 5.6 km/h 5.6 km/h 76 % 0.0 mm 44.0 W/m2 CLR
08:51 10.1 °C 5.9 °C 1022.2 hPa WSW 6.4 km/h 6.4 km/h 75 % 0.0 mm 84.0 W/m2 SCT
08:56 10.3 °C 5.7 °C 1022.2 hPa West 14.8 km/h 14.8 km/h 73 % 0.0 mm 171.0 W/m2 FEW
09:01 10.5 °C 5.9 °C 1022.2 hPa West 18.5 km/h 18.5 km/h 73 % 0.0 mm 192.0 W/m2 CLR
09:06 10.6 °C 5.8 °C 1022.2 hPa WSW 7.4 km/h 7.4 km/h 72 % 0.0 mm 207.0 W/m2 CLR
09:11 10.7 °C 5.9 °C 1022.2 hPa WSW 11.1 km/h 11.1 km/h 72 % 0.0 mm 225.0 W/m2 CLR
09:16 10.9 °C 5.8 °C 1022.2 hPa WSW 13.0 km/h 13.0 km/h 71 % 0.0 mm 241.0 W/m2 CLR
09:21 11.0 °C 5.7 °C 1022.2 hPa SW 20.4 km/h 20.4 km/h 70 % 0.0 mm 260.0 W/m2 CLR
09:26 11.1 °C 5.8 °C 1021.9 hPa West 18.5 km/h 18.5 km/h 70 % 0.0 mm 278.0 W/m2 CLR
09:31 11.3 °C 5.8 °C 1021.9 hPa WSW 18.5 km/h 18.5 km/h 69 % 0.0 mm 294.0 W/m2 CLR
09:36 11.3 °C 5.8 °C 1021.9 hPa WSW 16.7 km/h 16.7 km/h 69 % 0.0 mm 309.0 W/m2 CLR
09:41 11.4 °C 5.7 °C 1021.9 hPa West 20.4 km/h 20.4 km/h 68 % 0.0 mm 325.0 W/m2 CLR
09:42 11.4 °C 5.7 °C 1021.9 hPa WNW 18.5 km/h 18.5 km/h 68 % 0.0 mm 330.0 W/m2 CLR
09:47 11.5 °C 5.8 °C 1021.9 hPa WSW 18.5 km/h 18.5 km/h 68 % 0.0 mm 348.0 W/m2 CLR
09:52 11.6 °C 5.8 °C 1021.9 hPa NW 24.1 km/h 24.1 km/h 68 % 0.0 mm 362.0 W/m2 CLR
09:57 11.8 °C 5.8 °C 1021.9 hPa West 18.5 km/h 18.5 km/h 67 % 0.0 mm 378.0 W/m2 CLR
10:02 11.9 °C 5.9 °C 1021.9 hPa WNW 20.4 km/h 20.4 km/h 67 % 0.0 mm 396.0 W/m2 CLR
10:07 12.0 °C 5.8 °C 1021.9 hPa WNW 25.9 km/h 25.9 km/h 66 % 0.0 mm 410.0 W/m2 CLR
10:12 12.2 °C 6.2 °C 1021.9 hPa West 16.1 km/h 16.1 km/h 67 % 0.0 mm 425.0 W/m2 CLR
10:17 12.2 °C 6.0 °C 1021.9 hPa West 20.9 km/h 20.9 km/h 66 % 0.0 mm 441.0 W/m2 CLR
10:22 12.2 °C 5.8 °C 1021.9 hPa West 18.5 km/h 18.5 km/h 65 % 0.0 mm 455.0 W/m2 CLR
10:27 12.5 °C 6.1 °C 1021.9 hPa West 14.8 km/h 14.8 km/h 65 % 0.0 mm 475.0 W/m2 CLR
10:28 12.6 °C 6.4 °C 1021.9 hPa WNW 24.1 km/h 24.1 km/h 66 % 0.0 mm 475.0 W/m2 CLR
10:33 12.5 °C 5.7 °C 1021.9 hPa NW 33.3 km/h 33.3 km/h 63 % 0.0 mm 490.0 W/m2 CLR
10:38 12.4 °C 5.8 °C 1021.9 hPa WSW 24.1 km/h 24.1 km/h 64 % 0.0 mm 504.0 W/m2 CLR
10:43 12.6 °C 6.0 °C 1021.9 hPa West 25.9 km/h 25.9 km/h 64 % 0.0 mm 519.0 W/m2 CLR
10:48 12.9 °C 6.3 °C 1021.9 hPa West 22.2 km/h 22.2 km/h 64 % 0.0 mm 533.0 W/m2 CLR
10:53 13.1 °C 6.2 °C 1021.9 hPa West 25.9 km/h 25.9 km/h 63 % 0.0 mm 543.0 W/m2 CLR
10:58 12.8 °C 5.7 °C 1021.9 hPa WSW 29.6 km/h 29.6 km/h 62 % 0.0 mm 561.0 W/m2 CLR
11:03 13.1 °C 6.2 °C 1021.9 hPa WNW 29.6 km/h 29.6 km/h 63 % 0.0 mm 571.0 W/m2 CLR
11:08 13.4 °C 6.5 °C 1021.6 hPa West 27.8 km/h 27.8 km/h 63 % 0.0 mm 582.0 W/m2 CLR
11:13 13.4 °C 6.3 °C 1021.9 hPa WNW 17.7 km/h 17.7 km/h 62 % 0.0 mm 599.0 W/m2 CLR
11:18 13.7 °C 6.3 °C 1021.9 hPa NW 24.1 km/h 24.1 km/h 61 % 0.0 mm 610.0 W/m2 CLR
11:23 14.0 °C 6.6 °C 1021.9 hPa West 20.9 km/h 20.9 km/h 61 % 0.0 mm 624.0 W/m2 CLR
11:28 13.9 °C 6.3 °C 1021.6 hPa West 24.1 km/h 24.1 km/h 60 % 0.0 mm 635.0 W/m2 CLR
11:33 14.1 °C 6.4 °C 1021.6 hPa West 27.4 km/h 27.4 km/h 60 % 0.0 mm 649.0 W/m2 CLR
11:38 14.1 °C 6.4 °C 1021.6 hPa WNW 29.6 km/h 29.6 km/h 60 % 0.0 mm 666.0 W/m2 CLR
11:43 14.2 °C 6.3 °C 1021.6 hPa WNW 31.5 km/h 31.5 km/h 59 % 0.0 mm 670.0 W/m2 CLR
11:48 14.2 °C 6.1 °C 1021.6 hPa West 29.6 km/h 29.6 km/h 58 % 0.0 mm 686.0 W/m2 CLR
11:53 14.2 °C 6.1 °C 1021.6 hPa West 25.9 km/h 25.9 km/h 58 % 0.0 mm 691.0 W/m2 CLR
11:58 14.6 °C 6.1 °C 1021.6 hPa West 24.1 km/h 24.1 km/h 57 % 0.0 mm 700.0 W/m2 CLR
12:03 14.8 °C 6.1 °C 1021.6 hPa NW 24.1 km/h 24.1 km/h 56 % 0.0 mm 721.0 W/m2 CLR
12:04 14.8 °C 6.1 °C 1021.6 hPa WNW 22.2 km/h 22.2 km/h 56 % 0.0 mm 712.0 W/m2 CLR
12:09 14.9 °C 6.4 °C 1021.6 hPa WNW 29.6 km/h 29.6 km/h 57 % 0.0 mm 722.0 W/m2 CLR
12:14 15.1 °C 6.4 °C 1021.2 hPa WNW 18.5 km/h 18.5 km/h 56 % 0.0 mm 721.0 W/m2 CLR
12:19 15.3 °C 6.3 °C 1021.2 hPa WNW 27.8 km/h 27.8 km/h 55 % 0.0 mm 735.0 W/m2 CLR
12:24 15.6 °C 6.0 °C 1021.2 hPa WNW 27.8 km/h 27.8 km/h 53 % 0.0 mm 747.0 W/m2 CLR
12:29 15.5 °C 6.2 °C 1021.2 hPa NW 20.4 km/h 20.4 km/h 54 % 0.0 mm 745.0 W/m2 CLR
12:34 15.6 °C 6.3 °C 1021.2 hPa WNW 22.2 km/h 22.2 km/h 54 % 0.0 mm 761.0 W/m2 CLR
12:39 15.8 °C 6.5 °C 1021.2 hPa NNW 20.4 km/h 20.4 km/h 54 % 0.0 mm 772.0 W/m2 CLR
12:44 16.2 °C 6.6 °C 1020.9 hPa NW 18.5 km/h 18.5 km/h 53 % 0.0 mm 788.0 W/m2 CLR
12:49 16.4 °C 5.9 °C 1020.9 hPa West 25.9 km/h 25.9 km/h 50 % 0.0 mm 784.0 W/m2 CLR
12:54 16.1 °C 6.2 °C 1020.9 hPa WNW 18.5 km/h 18.5 km/h 52 % 0.0 mm 784.0 W/m2 CLR
12:59 16.3 °C 6.4 °C 1020.9 hPa West 16.1 km/h 16.1 km/h 52 % 0.0 mm 791.0 W/m2 CLR
13:04 16.4 °C 5.9 °C 1020.9 hPa NW 24.1 km/h 24.1 km/h 50 % 0.0 mm 798.0 W/m2 CLR
13:09 16.4 °C 6.2 °C 1020.9 hPa WNW 25.9 km/h 25.9 km/h 51 % 0.0 mm 807.0 W/m2 CLR
13:14 16.4 °C 6.0 °C 1020.5 hPa NNW 31.5 km/h 31.5 km/h 50 % 0.0 mm 807.0 W/m2 CLR
13:19 16.6 °C 6.1 °C 1020.5 hPa NNW 31.5 km/h 31.5 km/h 50 % 0.0 mm 817.0 W/m2 CLR
13:24 16.8 °C 6.3 °C 1020.5 hPa NW 18.5 km/h 18.5 km/h 50 % 0.0 mm 817.0 W/m2 CLR
13:29 16.9 °C 6.1 °C 1020.2 hPa NW 25.9 km/h 25.9 km/h 49 % 0.0 mm 805.0 W/m2 CLR
13:34 16.9 °C 5.8 °C 1020.2 hPa NNW 31.5 km/h 31.5 km/h 48 % 0.0 mm 810.0 W/m2 CLR
13:39 17.1 °C 6.6 °C 1019.9 hPa NW 25.9 km/h 25.9 km/h 50 % 0.0 mm 824.0 W/m2 CLR
13:44 17.3 °C 6.2 °C 1020.2 hPa WNW 31.5 km/h 31.5 km/h 48 % 0.0 mm 826.0 W/m2 CLR
13:49 17.2 °C 6.4 °C 1020.2 hPa NW 25.7 km/h 25.7 km/h 49 % 0.0 mm 838.0 W/m2 CLR
13:54 17.3 °C 6.5 °C 1019.9 hPa NW 22.2 km/h 22.2 km/h 49 % 0.0 mm 826.0 W/m2 CLR
13:59 17.4 °C 5.9 °C 1019.9 hPa NW 25.9 km/h 25.9 km/h 47 % 0.0 mm 842.0 W/m2 CLR
14:04 17.4 °C 6.0 °C 1019.9 hPa NW 35.2 km/h 35.2 km/h 47 % 0.0 mm 821.0 W/m2 CLR
14:09 17.7 °C 5.9 °C 1019.9 hPa WNW 31.5 km/h 31.5 km/h 46 % 0.0 mm 838.0 W/m2 CLR
14:14 17.7 °C 5.9 °C 1019.5 hPa NNW 24.1 km/h 24.1 km/h 46 % 0.0 mm 819.0 W/m2 CLR
14:19 17.9 °C 6.1 °C 1019.5 hPa West 24.1 km/h 24.1 km/h 46 % 0.0 mm 831.0 W/m2 CLR
14:24 17.9 °C 5.8 °C 1019.2 hPa NW 35.2 km/h 35.2 km/h 45 % 0.0 mm 833.0 W/m2 CLR
14:29 18.2 °C 6.1 °C 1019.2 hPa NW 27.4 km/h 27.4 km/h 45 % 0.0 mm 821.0 W/m2 CLR
14:34 18.3 °C 5.1 °C 1019.2 hPa WNW 24.1 km/h 24.1 km/h 42 % 0.0 mm 840.0 W/m2 CLR
14:39 18.5 °C 6.0 °C 1018.8 hPa WNW 24.1 km/h 24.1 km/h 44 % 0.0 mm 830.0 W/m2 CLR
14:44 18.4 °C 5.6 °C 1018.8 hPa NNW 24.1 km/h 24.1 km/h 43 % 0.0 mm 819.0 W/m2 CLR
14:49 18.4 °C 5.9 °C 1018.8 hPa NW 31.5 km/h 31.5 km/h 44 % 0.0 mm 816.0 W/m2 CLR
14:54 18.6 °C 5.8 °C 1018.8 hPa WNW 25.9 km/h 25.9 km/h 43 % 0.0 mm 810.0 W/m2 CLR
14:59 18.8 °C 5.3 °C 1018.8 hPa WNW 27.8 km/h 27.8 km/h 41 % 0.0 mm 810.0 W/m2 CLR
15:04 18.8 °C 5.6 °C 1018.5 hPa NW 20.4 km/h 20.4 km/h 42 % 0.0 mm 807.0 W/m2 CLR
15:09 18.9 °C 5.3 °C 1018.5 hPa NNW 19.3 km/h 19.3 km/h 41 % 0.0 mm 793.0 W/m2 CLR
15:14 19.2 °C 5.7 °C 1018.5 hPa WNW 25.9 km/h 25.9 km/h 41 % 0.0 mm 791.0 W/m2 CLR
15:19 19.3 °C 5.7 °C 1018.2 hPa NW 20.4 km/h 20.4 km/h 41 % 0.0 mm 807.0 W/m2 CLR
15:24 19.4 °C 5.4 °C 1018.2 hPa NW 37.0 km/h 37.0 km/h 40 % 0.0 mm 796.0 W/m2 CLR
15:29 19.3 °C 5.3 °C 1018.2 hPa WNW 18.5 km/h 18.5 km/h 40 % 0.0 mm 777.0 W/m2 CLR
15:30 19.3 °C 5.7 °C 1018.2 hPa WNW 18.5 km/h 18.5 km/h 41 % 0.0 mm 754.0 W/m2 CLR
15:35 19.4 °C 5.1 °C 1017.8 hPa NW 25.9 km/h 25.9 km/h 39 % 0.0 mm 761.0 W/m2 CLR
15:40 19.4 °C 5.4 °C 1017.8 hPa WNW 31.5 km/h 31.5 km/h 40 % 0.0 mm 772.0 W/m2 CLR
15:45 19.6 °C 5.3 °C 1017.5 hPa WNW 27.4 km/h 27.4 km/h 39 % 0.0 mm 772.0 W/m2 CLR
15:50 19.7 °C 5.0 °C 1017.5 hPa WNW 27.8 km/h 27.8 km/h 38 % 0.0 mm 751.0 W/m2 CLR
15:55 19.8 °C 5.1 °C 1017.5 hPa NW 18.5 km/h 18.5 km/h 38 % 0.0 mm 731.0 W/m2 CLR
16:00 19.8 °C 4.7 °C 1017.5 hPa WNW 25.9 km/h 25.9 km/h 37 % 0.0 mm 729.0 W/m2 CLR
16:05 19.8 °C 4.3 °C 1017.5 hPa NNW 25.9 km/h 25.9 km/h 36 % 0.0 mm 744.0 W/m2 CLR
16:10 19.8 °C 4.3 °C 1017.2 hPa West 24.1 km/h 24.1 km/h 36 % 0.0 mm 745.0 W/m2 CLR
16:15 20.1 °C 4.9 °C 1017.2 hPa NNW 18.5 km/h 18.5 km/h 37 % 0.0 mm 671.0 W/m2 CLR
16:20 20.2 °C 3.8 °C 1017.2 hPa NNW 24.1 km/h 24.1 km/h 34 % 0.0 mm 670.0 W/m2 CLR
16:25 20.2 °C 3.8 °C 1016.8 hPa NW 29.6 km/h 29.6 km/h 34 % 0.0 mm 642.0 W/m2 CLR
16:30 20.1 °C 4.2 °C 1016.8 hPa NNW 29.6 km/h 29.6 km/h 35 % 0.0 mm 575.0 W/m2 CLR
16:35 20.2 °C 4.7 °C 1016.8 hPa NW 22.5 km/h 22.5 km/h 36 % 0.0 mm 568.0 W/m2 CLR
16:40 20.2 °C 4.7 °C 1016.8 hPa NNW 27.8 km/h 27.8 km/h 36 % 0.0 mm 628.0 W/m2 CLR
16:45 20.2 °C 4.3 °C 1016.8 hPa NNW 29.6 km/h 29.6 km/h 35 % 0.0 mm 545.0 W/m2 CLR
16:50 20.2 °C 4.2 °C 1016.8 hPa NW 17.7 km/h 17.7 km/h 35 % 0.0 mm 629.0 W/m2 CLR
16:55 20.4 °C 4.8 °C 1016.8 hPa NNW 20.4 km/h 20.4 km/h 36 % 0.0 mm 608.0 W/m2 CLR
17:00 20.6 °C 3.3 °C 1016.8 hPa WNW 29.6 km/h 29.6 km/h 32 % 0.0 mm 605.0 W/m2 CLR
17:05 20.6 °C 2.8 °C 1016.8 hPa NNW 31.5 km/h 31.5 km/h 31 % 0.0 mm 591.0 W/m2 CLR
17:10 20.6 °C 3.3 °C 1016.5 hPa WNW 27.8 km/h 27.8 km/h 32 % 0.0 mm 568.0 W/m2 CLR
17:15 20.6 °C 3.3 °C 1016.5 hPa WNW 24.1 km/h 24.1 km/h 32 % 0.0 mm 559.0 W/m2 CLR
17:20 20.7 °C 4.3 °C 1016.5 hPa NW 18.5 km/h 18.5 km/h 34 % 0.0 mm 545.0 W/m2 CLR
17:21 20.7 °C 3.8 °C 1016.5 hPa NNW 27.8 km/h 27.8 km/h 33 % 0.0 mm 543.0 W/m2 CLR
17:26 20.6 °C 4.1 °C 1016.5 hPa NNW 29.6 km/h 29.6 km/h 34 % 0.0 mm 529.0 W/m2 CLR
17:31 20.5 °C 4.5 °C 1016.5 hPa NNW 18.5 km/h 18.5 km/h 35 % 0.0 mm 510.0 W/m2 CLR
17:36 20.6 °C 3.8 °C 1016.5 hPa North 22.5 km/h 22.5 km/h 33 % 0.0 mm 501.0 W/m2 CLR
17:41 20.6 °C 3.8 °C 1016.5 hPa NW 24.1 km/h 24.1 km/h 33 % 0.0 mm 475.0 W/m2 CLR
17:46 20.6 °C 3.7 °C 1016.1 hPa WNW 27.8 km/h 27.8 km/h 33 % 0.0 mm 464.0 W/m2 CLR
17:51 20.6 °C 4.1 °C 1016.1 hPa NW 25.9 km/h 25.9 km/h 34 % 0.0 mm 452.0 W/m2 CLR
17:56 20.7 °C 3.8 °C 1016.1 hPa NW 25.9 km/h 25.9 km/h 33 % 0.0 mm 425.0 W/m2 CLR
18:01 20.6 °C 3.8 °C 1016.1 hPa NNW 24.1 km/h 24.1 km/h 33 % 0.0 mm 406.0 W/m2 CLR
18:06 20.6 °C 4.2 °C 1016.1 hPa NNW 27.8 km/h 27.8 km/h 34 % 0.0 mm 399.0 W/m2 CLR
18:11 20.5 °C 3.2 °C 1016.1 hPa NNW 29.6 km/h 29.6 km/h 32 % 0.0 mm 387.0 W/m2 CLR
18:16 20.4 °C 3.6 °C 1016.1 hPa NW 25.9 km/h 25.9 km/h 33 % 0.0 mm 373.0 W/m2 CLR
18:21 20.5 °C 4.1 °C 1016.1 hPa NW 18.5 km/h 18.5 km/h 34 % 0.0 mm 345.0 W/m2 CLR
18:26 20.6 °C 4.6 °C 1016.1 hPa NW 20.4 km/h 20.4 km/h 35 % 0.0 mm 332.0 W/m2 CLR
18:31 20.6 °C 4.6 °C 1016.1 hPa NW 25.9 km/h 25.9 km/h 35 % 0.0 mm 315.0 W/m2 CLR
18:36 20.4 °C 4.4 °C 1016.1 hPa WNW 22.2 km/h 22.2 km/h 35 % 0.0 mm 301.0 W/m2 CLR
18:41 20.4 °C 4.4 °C 1015.8 hPa NW 24.1 km/h 24.1 km/h 35 % 0.0 mm 281.0 W/m2 CLR
18:46 20.5 °C 4.1 °C 1015.8 hPa NW 24.1 km/h 24.1 km/h 34 % 0.0 mm 267.0 W/m2 CLR
18:51 20.3 °C 4.3 °C 1015.8 hPa NNW 27.4 km/h 27.4 km/h 35 % 0.0 mm 250.0 W/m2 CLR
18:56 20.2 °C 4.3 °C 1015.8 hPa WNW 25.9 km/h 25.9 km/h 35 % 0.0 mm 237.0 W/m2 CLR
19:01 20.2 °C 3.8 °C 1015.8 hPa NNW 24.1 km/h 24.1 km/h 34 % 0.0 mm 213.0 W/m2 CLR
19:07 20.2 °C 3.8 °C 1015.8 hPa WNW 18.5 km/h 18.5 km/h 34 % 0.0 mm 192.0 W/m2 CLR
19:12 20.2 °C 4.2 °C 1015.8 hPa NW 11.1 km/h 11.1 km/h 35 % 0.0 mm 174.0 W/m2 CLR
19:17 20.3 °C 4.7 °C 1016.1 hPa NW 5.6 km/h 5.6 km/h 36 % 0.0 mm 156.0 W/m2 CLR
19:22 20.1 °C 4.5 °C 1016.1 hPa NW 22.2 km/h 22.2 km/h 36 % 0.0 mm 141.0 W/m2 CLR
19:27 19.8 °C 4.3 °C 1016.1 hPa NNW 27.8 km/h 27.8 km/h 36 % 0.0 mm 118.0 W/m2 CLR
19:32 19.6 °C 4.1 °C 1016.1 hPa NW 24.1 km/h 24.1 km/h 36 % 0.0 mm 102.0 W/m2 CLR
19:37 19.6 °C 4.4 °C 1016.1 hPa NW 18.5 km/h 18.5 km/h 37 % 0.0 mm 88.0 W/m2 CLR
19:42 19.5 °C 4.4 °C 1016.5 hPa WNW 18.5 km/h 18.5 km/h 37 % 0.0 mm 74.0 W/m2 FEW
19:43 19.4 °C 4.4 °C 1016.5 hPa NW 18.5 km/h 18.5 km/h 37 % 0.0 mm 65.0 W/m2 SCT
19:48 19.2 °C 4.5 °C 1016.5 hPa NW 29.6 km/h 29.6 km/h 38 % 0.0 mm 47.0 W/m2 SCT
19:53 19.0 °C 4.7 °C 1016.5 hPa NW 16.7 km/h 16.7 km/h 39 % 0.0 mm 42.0 W/m2 BKN
19:58 18.9 °C 4.6 °C 1016.5 hPa WNW 22.5 km/h 22.5 km/h 39 % 0.0 mm 33.0 W/m2 BKN
20:03 18.7 °C 4.8 °C 1016.5 hPa NW 18.5 km/h 18.5 km/h 40 % 0.0 mm 25.0 W/m2 BKN
20:08 18.4 °C 4.9 °C 1016.5 hPa NNW 18.5 km/h 18.5 km/h 41 % 0.0 mm 18.0 W/m2 BKN
20:13 18.2 °C 5.1 °C 1016.5 hPa NW 19.3 km/h 19.3 km/h 42 % 0.0 mm 14.0 W/m2 BKN
20:18 17.9 °C 5.2 °C 1016.5 hPa NW 18.5 km/h 18.5 km/h 43 % 0.0 mm 12.0 W/m2 BKN
20:23 17.7 °C 5.0 °C 1016.5 hPa West 7.4 km/h 7.4 km/h 43 % 0.0 mm 7.0 W/m2 BKN
20:28 17.6 °C 5.2 °C 1016.5 hPa West 5.6 km/h 5.6 km/h 44 % 0.0 mm 5.0 W/m2 OVC
20:33 17.4 °C 5.3 °C 1016.8 hPa WNW 13.0 km/h 13.0 km/h 45 % 0.0 mm 0.0 W/m2 OVC
20:38 17.2 °C 5.2 °C 1016.8 hPa WNW 7.4 km/h 7.4 km/h 45 % 0.0 mm 0.0 W/m2 OVC
20:44 17.0 °C 5.3 °C 1016.8 hPa Calm     46 % 0.0 mm 0.0 W/m2 CLR
20:49 16.9 °C 5.2 °C 1016.8 hPa West 4.8 km/h 4.8 km/h 46 % 0.0 mm 0.0 W/m2 CLR
20:54 16.7 °C 5.1 °C 1016.8 hPa WNW 5.6 km/h 5.6 km/h 46 % 0.0 mm 0.0 W/m2 CLR
20:59 16.6 °C 4.9 °C 1016.8 hPa WNW 18.5 km/h 18.5 km/h 46 % 0.0 mm 0.0 W/m2 CLR
21:04 16.6 °C 4.9 °C 1017.2 hPa West 5.6 km/h 7.7 km/h 46 % 0.0 mm 0.0 W/m2 CLR
21:09 16.7 °C 4.7 °C 1017.2 hPa West 11.3 km/h 11.3 km/h 45 % 0.0 mm 0.0 W/m2 CLR
21:14 16.6 °C 4.9 °C 1017.2 hPa West 18.5 km/h 18.5 km/h 46 % 0.0 mm 0.0 W/m2 CLR
21:19 16.4 °C 4.8 °C 1017.2 hPa WSW 13.0 km/h 13.0 km/h 46 % 0.0 mm 0.0 W/m2 CLR
21:24 16.3 °C 4.7 °C 1017.5 hPa WSW 1.9 km/h 1.9 km/h 46 % 0.0 mm 0.0 W/m2 CLR
21:29 16.2 °C 4.8 °C 1017.5 hPa West 5.6 km/h 5.6 km/h 47 % 0.0 mm 0.0 W/m2 CLR
21:34 16.1 °C 4.7 °C 1017.8 hPa NW 1.9 km/h 4.2 km/h 47 % 0.0 mm 0.0 W/m2 CLR
21:39 15.9 °C 4.6 °C 1017.8 hPa Calm     47 % 0.0 mm 0.0 W/m2 CLR
21:44 15.8 °C 4.6 °C 1017.8 hPa WSW 1.6 km/h 1.6 km/h 47 % 0.0 mm 0.0 W/m2 CLR
21:49 15.8 °C 4.8 °C 1017.8 hPa Calm     48 % 0.0 mm 0.0 W/m2 CLR
21:54 15.6 °C 4.6 °C 1017.8 hPa West 5.6 km/h 5.6 km/h 48 % 0.0 mm 0.0 W/m2 CLR
21:59 15.4 °C 4.5 °C 1018.2 hPa Calm   0.5 km/h 48 % 0.0 mm 0.0 W/m2 CLR
22:04 15.4 °C 4.5 °C 1018.2 hPa West 5.6 km/h 5.6 km/h 48 % 0.0 mm 0.0 W/m2 CLR
22:09 15.4 °C 4.4 °C 1018.2 hPa West 5.6 km/h 5.6 km/h 48 % 0.0 mm 0.0 W/m2 CLR
22:14 15.2 °C 4.6 °C 1018.2 hPa Calm     49 % 0.0 mm 0.0 W/m2 CLR
22:19 15.0 °C 4.7 °C 1018.5 hPa Calm     50 % 0.0 mm 0.0 W/m2 CLR
22:24 14.7 °C 4.6 °C 1018.5 hPa WSW 5.6 km/h 5.6 km/h 51 % 0.0 mm 0.0 W/m2 CLR
22:29 14.5 °C 4.5 °C 1018.5 hPa West 5.6 km/h 5.6 km/h 51 % 0.0 mm 0.0 W/m2 CLR
22:34 14.6 °C 4.3 °C 1018.5 hPa West 7.4 km/h 7.4 km/h 50 % 0.0 mm 0.0 W/m2 CLR
22:39 14.6 °C 4.3 °C 1018.5 hPa WSW 3.7 km/h 3.7 km/h 50 % 0.0 mm 0.0 W/m2 CLR
22:44 14.4 °C 4.4 °C 1018.8 hPa Calm     51 % 0.0 mm 0.0 W/m2 CLR
22:49 14.3 °C 4.3 °C 1018.8 hPa Calm     51 % 0.0 mm 0.0 W/m2 CLR
22:54 14.1 °C 4.3 °C 1018.8 hPa WSW 5.6 km/h 5.6 km/h 52 % 0.0 mm 0.0 W/m2 CLR
22:59 13.9 °C 4.2 °C 1018.8 hPa WSW 5.6 km/h 5.6 km/h 52 % 0.0 mm 0.0 W/m2 CLR
23:04 13.9 °C 4.2 °C 1018.8 hPa WSW 9.3 km/h 9.3 km/h 52 % 0.0 mm 0.0 W/m2 CLR
23:09 13.9 °C 4.2 °C 1019.2 hPa SW 5.6 km/h 5.6 km/h 52 % 0.0 mm 0.0 W/m2 CLR
23:14 13.7 °C 4.1 °C 1019.2 hPa WSW 9.3 km/h 9.3 km/h 52 % 0.0 mm 0.0 W/m2 CLR
23:19 13.6 °C 4.2 °C 1019.2 hPa WSW 7.4 km/h 7.4 km/h 53 % 0.0 mm 0.0 W/m2 CLR
23:24 13.6 °C 3.9 °C 1019.2 hPa WSW 8.0 km/h 8.0 km/h 52 % 0.0 mm 0.0 W/m2 CLR
23:29 13.6 °C 3.9 °C 1019.2 hPa WSW 5.6 km/h 5.6 km/h 52 % 0.0 mm 0.0 W/m2 CLR
23:34 13.4 °C 4.1 °C 1019.5 hPa SW 4.8 km/h 4.8 km/h 53 % 0.0 mm 0.0 W/m2 CLR
23:39 13.2 °C 4.1 °C 1019.5 hPa SSW 7.4 km/h 7.4 km/h 54 % 0.0 mm 0.0 W/m2 CLR
23:44 12.9 °C 4.1 °C 1019.5 hPa WSW 7.4 km/h 7.4 km/h 55 % 0.0 mm 0.0 W/m2 CLR
23:49 12.9 °C 4.1 °C 1019.5 hPa West 7.4 km/h 7.4 km/h 55 % 0.0 mm 0.0 W/m2 CLR
23:54 13.1 °C 4.3 °C 1019.9 hPa West 3.7 km/h 3.7 km/h 55 % 0.0 mm 0.0 W/m2 CLR
23:59 13.2 °C 4.6 °C 1019.9 hPa WSW 5.6 km/h 5.6 km/h 56 % 0.0 mm 0.0 W/m2 CLR
Lo Temps de Massalio
Compliments of Weather Underground - 1.25 mb